Terminal Aerodrome Forecast
Issued by NWS Charleston, WV

Current Version | Previous Version | Text Only | Print | Product List | Glossary Off
Versions: 1 2 3 4 5 6 7 8 9 10 11 12 13 14 15 16 17 18 19 20 21

787
FTUS41 KRLX 201120
TAFBKW
TAF
KBKW 201120Z 2012/2112 24005KT P6SM SCT050
     FM201300 27006KT P6SM SKC
     FM201600 29009G15KT P6SM SCT050
     FM202200 29005KT P6SM FEW050 SCT250=

USA.gov is the U.S. government's official web portal to all federal, state and local government web resources and services.